sensor_id;sensor_type;location;lat;lon;timestamp;pressure;altitude;pressure_sealevel;temperature;humidity
7802;BME280;3945;48.952;9.506;2023-07-24T00:01:10;97323.50;;;18.50;89.12
7802;BME280;3945;48.952;9.506;2023-07-24T00:03:37;97253.31;;;18.32;90.00
7802;BME280;3945;48.952;9.506;2023-07-24T00:06:03;97307.50;;;18.31;88.58
7802;BME280;3945;48.952;9.506;2023-07-24T00:08:29;97357.00;;;18.35;90.50
7802;BME280;3945;48.952;9.506;2023-07-24T00:10:57;97386.34;;;18.37;91.32
7802;BME280;3945;48.952;9.506;2023-07-24T00:13:23;97373.16;;;18.35;91.63
7802;BME280;3945;48.952;9.506;2023-07-24T00:15:50;97284.19;;;18.26;92.48
7802;BME280;3945;48.952;9.506;2023-07-24T00:18:16;97256.50;;;18.12;93.62
7802;BME280;3945;48.952;9.506;2023-07-24T00:20:42;97283.75;;;18.11;94.03
7802;BME280;3945;48.952;9.506;2023-07-24T00:23:09;97307.47;;;18.09;94.09
7802;BME280;3945;48.952;9.506;2023-07-24T00:25:35;97280.81;;;17.99;95.50
7802;BME280;3945;48.952;9.506;2023-07-24T00:28:03;97264.16;;;17.97;95.49
7802;BME280;3945;48.952;9.506;2023-07-24T00:30:29;97261.06;;;17.89;96.39
7802;BME280;3945;48.952;9.506;2023-07-24T00:32:55;97269.34;;;17.93;97.00
7802;BME280;3945;48.952;9.506;2023-07-24T00:35:22;97288.38;;;17.97;97.22
7802;BME280;3945;48.952;9.506;2023-07-24T00:37:48;97290.16;;;18.01;97.88
7802;BME280;3945;48.952;9.506;2023-07-24T00:40:14;97256.75;;;18.02;97.70
7802;BME280;3945;48.952;9.506;2023-07-24T00:42:41;97242.38;;;18.07;97.91
7802;BME280;3945;48.952;9.506;2023-07-24T00:45:13;97243.03;;;18.12;97.79
7802;BME280;3945;48.952;9.506;2023-07-24T00:47:39;97248.31;;;18.17;97.85
7802;BME280;3945;48.952;9.506;2023-07-24T00:50:07;97248.59;;;18.16;97.76
7802;BME280;3945;48.952;9.506;2023-07-24T00:52:33;97243.34;;;18.11;97.62
7802;BME280;3945;48.952;9.506;2023-07-24T00:55:00;97225.59;;;18.10;97.56
7802;BME280;3945;48.952;9.506;2023-07-24T00:57:26;97229.09;;;18.10;97.96
7802;BME280;3945;48.952;9.506;2023-07-24T00:59:53;97220.63;;;18.03;98.60
7802;BME280;3945;48.952;9.506;2023-07-24T01:02:21;97237.09;;;18.02;98.31
7802;BME280;3945;48.952;9.506;2023-07-24T01:04:47;97220.94;;;18.02;98.53
7802;BME280;3945;48.952;9.506;2023-07-24T01:07:14;97229.34;;;18.00;98.36
7802;BME280;3945;48.952;9.506;2023-07-24T01:09:41;97217.88;;;17.94;98.81
7802;BME280;3945;48.952;9.506;2023-07-24T01:12:10;97201.06;;;17.89;98.61
7802;BME280;3945;48.952;9.506;2023-07-24T01:14:39;97199.00;;;17.86;99.01
7802;BME280;3945;48.952;9.506;2023-07-24T01:17:10;97189.13;;;17.81;99.00
7802;BME280;3945;48.952;9.506;2023-07-24T01:19:42;97197.03;;;17.78;99.82
7802;BME280;3945;48.952;9.506;2023-07-24T01:22:10;97186.25;;;17.78;99.67
7802;BME280;3945;48.952;9.506;2023-07-24T01:24:42;97179.28;;;17.77;100.00
7802;BME280;3945;48.952;9.506;2023-07-24T01:27:19;97178.47;;;17.76;100.00
7802;BME280;3945;48.952;9.506;2023-07-24T01:29:46;97173.41;;;17.75;100.00
7802;BME280;3945;48.952;9.506;2023-07-24T01:32:12;97170.91;;;17.78;100.00
7802;BME280;3945;48.952;9.506;2023-07-24T01:34:38;97165.53;;;17.78;100.00
7802;BME280;3945;48.952;9.506;2023-07-24T01:37:05;97164.72;;;17.78;100.00
7802;BME280;3945;48.952;9.506;2023-07-24T01:39:31;97166.41;;;17.74;99.95
7802;BME280;3945;48.952;9.506;2023-07-24T01:41:58;97172.59;;;17.74;100.00
7802;BME280;3945;48.952;9.506;2023-07-24T01:44:26;97177.44;;;17.64;99.45
7802;BME280;3945;48.952;9.506;2023-07-24T01:46:53;97173.94;;;17.63;99.29
7802;BME280;3945;48.952;9.506;2023-07-24T01:49:19;97172.91;;;17.59;99.39
7802;BME280;3945;48.952;9.506;2023-07-24T01:51:45;97181.00;;;17.59;99.25
7802;BME280;3945;48.952;9.506;2023-07-24T01:54:11;97184.22;;;17.61;99.00
7802;BME280;3945;48.952;9.506;2023-07-24T01:56:39;97189.00;;;17.64;98.67
7802;BME280;3945;48.952;9.506;2023-07-24T01:59:05;97199.13;;;17.67;98.67
7802;BME280;3945;48.952;9.506;2023-07-24T02:01:33;97192.97;;;17.67;98.59
7802;BME280;3945;48.952;9.506;2023-07-24T02:03:59;97190.56;;;17.65;98.16
7802;BME280;3945;48.952;9.506;2023-07-24T02:06:25;97189.59;;;17.61;98.07
7802;BME280;3945;48.952;9.506;2023-07-24T02:08:52;97182.84;;;17.50;98.51
7802;BME280;3945;48.952;9.506;2023-07-24T02:11:18;97182.63;;;17.46;98.37
7802;BME280;3945;48.952;9.506;2023-07-24T02:13:44;97179.16;;;17.46;98.16
7802;BME280;3945;48.952;9.506;2023-07-24T02:16:11;97180.06;;;17.41;98.66
7802;BME280;3945;48.952;9.506;2023-07-24T02:18:40;97181.88;;;17.32;98.77
7802;BME280;3945;48.952;9.506;2023-07-24T02:21:06;97181.88;;;17.32;98.56
7802;BME280;3945;48.952;9.506;2023-07-24T02:23:33;97179.97;;;17.33;98.39
7802;BME280;3945;48.952;9.506;2023-07-24T02:25:59;97177.59;;;17.31;98.74
7802;BME280;3945;48.952;9.506;2023-07-24T02:28:26;97173.63;;;17.29;99.23
7802;BME280;3945;48.952;9.506;2023-07-24T02:30:52;97174.41;;;17.29;99.10
7802;BME280;3945;48.952;9.506;2023-07-24T02:33:21;97172.50;;;17.30;99.32
7802;BME280;3945;48.952;9.506;2023-07-24T02:35:48;97167.91;;;17.30;99.34
7802;BME280;3945;48.952;9.506;2023-07-24T02:38:15;97170.94;;;17.29;99.40
7802;BME280;3945;48.952;9.506;2023-07-24T02:40:41;97175.81;;;17.27;99.28
7802;BME280;3945;48.952;9.506;2023-07-24T02:43:07;97179.78;;;17.29;99.12
7802;BME280;3945;48.952;9.506;2023-07-24T02:45:34;97170.72;;;17.25;99.36
7802;BME280;3945;48.952;9.506;2023-07-24T02:48:00;97184.47;;;17.24;99.46
7802;BME280;3945;48.952;9.506;2023-07-24T02:50:27;97175.13;;;17.21;99.44
7802;BME280;3945;48.952;9.506;2023-07-24T02:52:55;97170.34;;;17.18;99.82
7802;BME280;3945;48.952;9.506;2023-07-24T02:55:21;97161.47;;;17.17;99.68
7802;BME280;3945;48.952;9.506;2023-07-24T02:57:48;97153.13;;;17.19;99.87
7802;BME280;3945;48.952;9.506;2023-07-24T03:00:14;97149.63;;;17.18;99.76
7802;BME280;3945;48.952;9.506;2023-07-24T03:02:41;97140.69;;;17.09;99.90
7802;BME280;3945;48.952;9.506;2023-07-24T03:05:07;97139.09;;;17.08;99.77
7802;BME280;3945;48.952;9.506;2023-07-24T03:07:34;97133.72;;;17.08;99.93
7802;BME280;3945;48.952;9.506;2023-07-24T03:10:02;97126.56;;;17.04;99.76
7802;BME280;3945;48.952;9.506;2023-07-24T03:12:28;97127.47;;;16.99;99.80
7802;BME280;3945;48.952;9.506;2023-07-24T03:14:55;97124.06;;;16.94;100.00
7802;BME280;3945;48.952;9.506;2023-07-24T03:17:22;97129.56;;;16.89;100.00
7802;BME280;3945;48.952;9.506;2023-07-24T03:19:49;97121.00;;;16.87;100.00
7802;BME280;3945;48.952;9.506;2023-07-24T03:22:15;97114.34;;;16.84;100.00
7802;BME280;3945;48.952;9.506;2023-07-24T03:24:41;97114.44;;;16.79;100.00
7802;BME280;3945;48.952;9.506;2023-07-24T03:27:09;97111.47;;;16.81;100.00
7802;BME280;3945;48.952;9.506;2023-07-24T03:29:35;97107.97;;;16.80;100.00
7802;BME280;3945;48.952;9.506;2023-07-24T03:32:02;97097.53;;;16.78;100.00
7802;BME280;3945;48.952;9.506;2023-07-24T03:34:28;97095.44;;;16.75;100.00
7802;BME280;3945;48.952;9.506;2023-07-24T03:36:55;97087.38;;;16.75;100.00
7802;BME280;3945;48.952;9.506;2023-07-24T03:39:21;97081.13;;;16.66;100.00
7802;BME280;3945;48.952;9.506;2023-07-24T03:41:47;97093.16;;;16.69;100.00
7802;BME280;3945;48.952;9.506;2023-07-24T03:44:15;97100.13;;;16.70;99.95
7802;BME280;3945;48.952;9.506;2023-07-24T03:46:41;97094.44;;;16.71;100.00
7802;BME280;3945;48.952;9.506;2023-07-24T03:49:08;97095.66;;;16.65;100.00
7802;BME280;3945;48.952;9.506;2023-07-24T03:51:34;97098.44;;;16.60;100.00
7802;BME280;3945;48.952;9.506;2023-07-24T03:54:00;97112.84;;;16.64;100.00
7802;BME280;3945;48.952;9.506;2023-07-24T03:56:27;97116.56;;;16.68;100.00
7802;BME280;3945;48.952;9.506;2023-07-24T03:58:53;97116.34;;;16.65;100.00
7802;BME280;3945;48.952;9.506;2023-07-24T04:01:21;97112.94;;;16.59;100.00
7802;BME280;3945;48.952;9.506;2023-07-24T04:03:47;97105.41;;;16.61;100.00
7802;BME280;3945;48.952;9.506;2023-07-24T04:06:13;97118.44;;;16.68;100.00
7802;BME280;3945;48.952;9.506;2023-07-24T04:08:40;97118.31;;;16.73;100.00
7802;BME280;3945;48.952;9.506;2023-07-24T04:11:06;97113.97;;;16.77;100.00
7802;BME280;3945;48.952;9.506;2023-07-24T04:13:32;97113.06;;;16.82;100.00
7802;BME280;3945;48.952;9.506;2023-07-24T04:15:59;97112.13;;;16.86;100.00
7802;BME280;3945;48.952;9.506;2023-07-24T04:18:26;97102.97;;;16.87;100.00
7802;BME280;3945;48.952;9.506;2023-07-24T04:20:53;97101.09;;;16.88;100.00
7802;BME280;3945;48.952;9.506;2023-07-24T04:23:19;97094.91;;;16.87;100.00
7802;BME280;3945;48.952;9.506;2023-07-24T04:25:45;97095.13;;;16.91;100.00
7802;BME280;3945;48.952;9.506;2023-07-24T04:28:12;97092.75;;;16.89;100.00
7802;BME280;3945;48.952;9.506;2023-07-24T04:30:38;97092.94;;;16.93;100.00
7802;BME280;3945;48.952;9.506;2023-07-24T04:33:04;97099.28;;;16.97;100.00
7802;BME280;3945;48.952;9.506;2023-07-24T04:35:32;97081.94;;;17.03;100.00
7802;BME280;3945;48.952;9.506;2023-07-24T04:37:58;97080.06;;;17.03;100.00
7802;BME280;3945;48.952;9.506;2023-07-24T04:40:25;97074.09;;;17.06;100.00
7802;BME280;3945;48.952;9.506;2023-07-24T04:42:51;97076.16;;;17.09;100.00
7802;BME280;3945;48.952;9.506;2023-07-24T04:45:17;97066.41;;;17.13;100.00
7802;BME280;3945;48.952;9.506;2023-07-24T04:47:44;97060.41;;;17.16;100.00
7802;BME280;3945;48.952;9.506;2023-07-24T04:50:10;97056.50;;;17.23;100.00
7802;BME280;3945;48.952;9.506;2023-07-24T04:52:38;97053.06;;;17.31;100.00
7802;BME280;3945;48.952;9.506;2023-07-24T04:55:04;97054.25;;;17.38;100.00
7802;BME280;3945;48.952;9.506;2023-07-24T04:57:31;97049.22;;;17.45;100.00
7802;BME280;3945;48.952;9.506;2023-07-24T04:59:57;97045.81;;;17.53;100.00
7802;BME280;3945;48.952;9.506;2023-07-24T05:02:24;97057.75;;;17.61;100.00
7802;BME280;3945;48.952;9.506;2023-07-24T05:04:50;97062.69;;;17.68;100.00
7802;BME280;3945;48.952;9.506;2023-07-24T05:07:16;97053.69;;;17.72;100.00
7802;BME280;3945;48.952;9.506;2023-07-24T05:09:44;97062.91;;;17.80;100.00
7802;BME280;3945;48.952;9.506;2023-07-24T05:12:10;97057.22;;;17.81;100.00
7802;BME280;3945;48.952;9.506;2023-07-24T05:14:36;97055.53;;;17.85;100.00
7802;BME280;3945;48.952;9.506;2023-07-24T05:17:03;97053.78;;;17.89;100.00
7802;BME280;3945;48.952;9.506;2023-07-24T05:19:29;97044.16;;;17.97;100.00
7802;BME280;3945;48.952;9.506;2023-07-24T05:21:56;97041.34;;;18.02;100.00
7802;BME280;3945;48.952;9.506;2023-07-24T05:24:24;97047.88;;;18.10;100.00
7802;BME280;3945;48.952;9.506;2023-07-24T05:26:51;97046.00;;;18.19;100.00
7802;BME280;3945;48.952;9.506;2023-07-24T05:29:18;97038.44;;;18.29;100.00
7802;BME280;3945;48.952;9.506;2023-07-24T05:31:44;97047.81;;;18.41;100.00
7802;BME280;3945;48.952;9.506;2023-07-24T05:34:10;97052.00;;;18.55;100.00
7802;BME280;3945;48.952;9.506;2023-07-24T05:36:37;97054.09;;;18.67;100.00
7802;BME280;3945;48.952;9.506;2023-07-24T05:39:03;97047.63;;;18.77;100.00
7802;BME280;3945;48.952;9.506;2023-07-24T05:41:30;97044.47;;;18.83;100.00
7802;BME280;3945;48.952;9.506;2023-07-24T05:43:57;97047.78;;;18.89;100.00
7802;BME280;3945;48.952;9.506;2023-07-24T05:46:24;97054.47;;;18.91;100.00
7802;BME280;3945;48.952;9.506;2023-07-24T05:48:50;97067.78;;;18.96;100.00
7802;BME280;3945;48.952;9.506;2023-07-24T05:51:16;97078.25;;;18.98;100.00
7802;BME280;3945;48.952;9.506;2023-07-24T05:53:43;97084.59;;;19.02;100.00
7802;BME280;3945;48.952;9.506;2023-07-24T05:56:09;97090.47;;;19.04;100.00
7802;BME280;3945;48.952;9.506;2023-07-24T05:58:35;97081.75;;;19.07;100.00
7802;BME280;3945;48.952;9.506;2023-07-24T06:01:03;97090.97;;;19.06;100.00
7802;BME280;3945;48.952;9.506;2023-07-24T06:03:29;97097.78;;;19.03;100.00
7802;BME280;3945;48.952;9.506;2023-07-24T06:05:56;97110.16;;;19.04;100.00
7802;BME280;3945;48.952;9.506;2023-07-24T06:08:22;97109.34;;;19.04;100.00
7802;BME280;3945;48.952;9.506;2023-07-24T06:10:49;97118.88;;;19.01;100.00
7802;BME280;3945;48.952;9.506;2023-07-24T06:13:15;97111.41;;;18.98;100.00
7802;BME280;3945;48.952;9.506;2023-07-24T06:15:42;97110.63;;;18.98;100.00
7802;BME280;3945;48.952;9.506;2023-07-24T06:18:10;97121.09;;;18.99;99.82
7802;BME280;3945;48.952;9.506;2023-07-24T06:20:36;97129.97;;;19.00;99.90
7802;BME280;3945;48.952;9.506;2023-07-24T06:23:02;97128.88;;;19.01;100.00
7802;BME280;3945;48.952;9.506;2023-07-24T06:25:29;97130.13;;;19.03;100.00
7802;BME280;3945;48.952;9.506;2023-07-24T06:27:56;97130.78;;;19.09;100.00
7802;BME280;3945;48.952;9.506;2023-07-24T06:30:22;97120.63;;;19.06;100.00
7802;BME280;3945;48.952;9.506;2023-07-24T06:32:49;97107.63;;;19.08;100.00
7802;BME280;3945;48.952;9.506;2023-07-24T06:35:16;97111.59;;;19.10;100.00
7802;BME280;3945;48.952;9.506;2023-07-24T06:37:43;97102.06;;;19.13;100.00
7802;BME280;3945;48.952;9.506;2023-07-24T06:40:10;97084.13;;;19.17;100.00
7802;BME280;3945;48.952;9.506;2023-07-24T06:42:37;97086.22;;;19.20;100.00
7802;BME280;3945;48.952;9.506;2023-07-24T06:45:03;97086.03;;;19.25;100.00
7802;BME280;3945;48.952;9.506;2023-07-24T06:47:30;97086.22;;;19.29;100.00
7802;BME280;3945;48.952;9.506;2023-07-24T06:49:56;97073.66;;;19.33;100.00
7802;BME280;3945;48.952;9.506;2023-07-24T06:52:25;97075.56;;;19.41;100.00
7802;BME280;3945;48.952;9.506;2023-07-24T06:54:51;97071.91;;;19.45;100.00
7802;BME280;3945;48.952;9.506;2023-07-24T06:57:17;97070.22;;;19.49;100.00
7802;BME280;3945;48.952;9.506;2023-07-24T06:59:44;97068.44;;;19.54;100.00
7802;BME280;3945;48.952;9.506;2023-07-24T07:02:10;97067.03;;;19.56;100.00
7802;BME280;3945;48.952;9.506;2023-07-24T07:04:37;97063.03;;;19.62;100.00
7802;BME280;3945;48.952;9.506;2023-07-24T07:07:03;97057.81;;;19.66;100.00
7802;BME280;3945;48.952;9.506;2023-07-24T07:09:31;97061.91;;;19.72;100.00
7802;BME280;3945;48.952;9.506;2023-07-24T07:11:58;97068.41;;;19.79;100.00
7802;BME280;3945;48.952;9.506;2023-07-24T07:14:24;97066.47;;;19.88;100.00
7802;BME280;3945;48.952;9.506;2023-07-24T07:16:51;97060.59;;;19.95;100.00
7802;BME280;3945;48.952;9.506;2023-07-24T07:19:17;97055.81;;;20.01;100.00
7802;BME280;3945;48.952;9.506;2023-07-24T07:21:43;97062.13;;;20.05;100.00
7802;BME280;3945;48.952;9.506;2023-07-24T07:24:10;97060.41;;;20.09;100.00
7802;BME280;3945;48.952;9.506;2023-07-24T07:26:37;97067.84;;;20.12;100.00
7802;BME280;3945;48.952;9.506;2023-07-24T07:29:04;97073.41;;;20.15;100.00
7802;BME280;3945;48.952;9.506;2023-07-24T07:31:30;97068.59;;;20.21;100.00
7802;BME280;3945;48.952;9.506;2023-07-24T07:33:57;97077.19;;;20.23;96.31
7802;BME280;3945;48.952;9.506;2023-07-24T07:36:23;97076.53;;;20.26;92.69
7802;BME280;3945;48.952;9.506;2023-07-24T07:38:50;97094.13;;;20.32;93.42
7802;BME280;3945;48.952;9.506;2023-07-24T07:41:16;97093.66;;;20.39;94.47
7802;BME280;3945;48.952;9.506;2023-07-24T07:43:44;97089.69;;;20.45;94.37
7802;BME280;3945;48.952;9.506;2023-07-24T07:46:10;97090.28;;;20.50;93.80
7802;BME280;3945;48.952;9.506;2023-07-24T07:48:37;97100.41;;;20.62;94.39
7802;BME280;3945;48.952;9.506;2023-07-24T07:51:03;97104.84;;;20.67;88.34
7802;BME280;3945;48.952;9.506;2023-07-24T07:53:30;97114.03;;;20.74;84.92
7802;BME280;3945;48.952;9.506;2023-07-24T07:55:56;97110.94;;;20.84;81.45
7802;BME280;3945;48.952;9.506;2023-07-24T07:58:24;97116.31;;;20.93;81.74
7802;BME280;3945;48.952;9.506;2023-07-24T08:00:57;97117.06;;;21.02;81.94
7802;BME280;3945;48.952;9.506;2023-07-24T08:03:26;97113.16;;;21.12;80.51
7802;BME280;3945;48.952;9.506;2023-07-24T08:05:56;97130.66;;;21.14;80.16
7802;BME280;3945;48.952;9.506;2023-07-24T08:08:22;97126.03;;;21.15;79.31
7802;BME280;3945;48.952;9.506;2023-07-24T08:10:48;97131.78;;;21.13;79.42
7802;BME280;3945;48.952;9.506;2023-07-24T08:13:15;97133.38;;;21.14;80.51
7802;BME280;3945;48.952;9.506;2023-07-24T08:15:41;97140.38;;;21.15;81.26
7802;BME280;3945;48.952;9.506;2023-07-24T08:18:09;97149.13;;;21.12;82.20
7802;BME280;3945;48.952;9.506;2023-07-24T08:20:36;97163.00;;;21.11;84.25
7802;BME280;3945;48.952;9.506;2023-07-24T08:23:03;97168.28;;;21.07;85.38
7802;BME280;3945;48.952;9.506;2023-07-24T08:25:30;97174.47;;;21.08;87.16
7802;BME280;3945;48.952;9.506;2023-07-24T08:27:56;97175.28;;;21.08;88.45
7802;BME280;3945;48.952;9.506;2023-07-24T08:30:22;97174.16;;;21.09;89.78
7802;BME280;3945;48.952;9.506;2023-07-24T08:32:49;97174.59;;;21.11;91.33
7802;BME280;3945;48.952;9.506;2023-07-24T08:35:17;97159.03;;;21.08;91.46
7802;BME280;3945;48.952;9.506;2023-07-24T08:37:44;97161.75;;;21.08;91.71
7802;BME280;3945;48.952;9.506;2023-07-24T08:40:10;97154.25;;;21.05;90.91
7802;BME280;3945;48.952;9.506;2023-07-24T08:42:38;97152.06;;;20.98;90.00
7802;BME280;3945;48.952;9.506;2023-07-24T08:45:04;97145.28;;;20.92;89.85
7802;BME280;3945;48.952;9.506;2023-07-24T08:47:31;97130.34;;;20.86;90.50
7802;BME280;3945;48.952;9.506;2023-07-24T08:49:57;97119.38;;;20.83;92.10
7802;BME280;3945;48.952;9.506;2023-07-24T08:52:26;97105.72;;;20.79;92.55
7802;BME280;3945;48.952;9.506;2023-07-24T08:54:52;97110.19;;;20.75;94.11
7802;BME280;3945;48.952;9.506;2023-07-24T08:57:20;97114.50;;;20.76;94.83
7802;BME280;3945;48.952;9.506;2023-07-24T08:59:47;97090.94;;;20.77;95.48
7802;BME280;3945;48.952;9.506;2023-07-24T09:02:15;97082.19;;;20.80;96.22
7802;BME280;3945;48.952;9.506;2023-07-24T09:04:41;97084.88;;;20.80;96.19
7802;BME280;3945;48.952;9.506;2023-07-24T09:07:07;97071.38;;;20.80;96.28
7802;BME280;3945;48.952;9.506;2023-07-24T09:09:35;97069.47;;;20.80;96.86
7802;BME280;3945;48.952;9.506;2023-07-24T09:12:02;97063.72;;;20.82;96.21
7802;BME280;3945;48.952;9.506;2023-07-24T09:14:28;97057.66;;;20.85;95.85
7802;BME280;3945;48.952;9.506;2023-07-24T09:17:02;97050.31;;;20.85;94.86
7802;BME280;3945;48.952;9.506;2023-07-24T09:19:28;97051.38;;;20.93;94.12
7802;BME280;3945;48.952;9.506;2023-07-24T09:21:55;97058.13;;;21.08;93.14
7802;BME280;3945;48.952;9.506;2023-07-24T09:24:21;97064.09;;;21.22;93.23
7802;BME280;3945;48.952;9.506;2023-07-24T09:26:50;97061.25;;;21.39;94.31
7802;BME280;3945;48.952;9.506;2023-07-24T09:29:17;97059.50;;;21.55;94.78
7802;BME280;3945;48.952;9.506;2023-07-24T09:31:43;97061.72;;;21.74;92.07
7802;BME280;3945;48.952;9.506;2023-07-24T09:34:14;97053.66;;;21.98;94.52
7802;BME280;3945;48.952;9.506;2023-07-24T09:36:40;97054.84;;;22.22;86.14
7802;BME280;3945;48.952;9.506;2023-07-24T09:39:06;97054.75;;;22.54;87.29
7802;BME280;3945;48.952;9.506;2023-07-24T09:41:35;97062.31;;;22.85;83.75
7802;BME280;3945;48.952;9.506;2023-07-24T09:44:03;97071.47;;;23.05;88.10
7802;BME280;3945;48.952;9.506;2023-07-24T09:46:30;97068.59;;;23.14;85.75
7802;BME280;3945;48.952;9.506;2023-07-24T09:48:57;97063.63;;;23.16;84.91
7802;BME280;3945;48.952;9.506;2023-07-24T09:51:23;97064.63;;;23.23;86.38
7802;BME280;3945;48.952;9.506;2023-07-24T09:53:51;97079.97;;;23.31;84.40
7802;BME280;3945;48.952;9.506;2023-07-24T09:56:19;97089.59;;;23.41;83.43
7802;BME280;3945;48.952;9.506;2023-07-24T09:58:46;97085.28;;;23.40;81.21
7802;BME280;3945;48.952;9.506;2023-07-24T10:01:15;97085.88;;;23.21;77.72
7802;BME280;3945;48.952;9.506;2023-07-24T10:03:45;97088.63;;;23.09;78.84
7802;BME280;3945;48.952;9.506;2023-07-24T10:06:12;97103.47;;;23.00;82.25
7802;BME280;3945;48.952;9.506;2023-07-24T10:08:40;97112.41;;;22.88;82.38
7802;BME280;3945;48.952;9.506;2023-07-24T10:11:06;97116.25;;;22.75;81.30
7802;BME280;3945;48.952;9.506;2023-07-24T10:13:32;97119.63;;;22.59;81.83
7802;BME280;3945;48.952;9.506;2023-07-24T10:16:01;97116.13;;;22.47;83.90
7802;BME280;3945;48.952;9.506;2023-07-24T10:18:33;97116.63;;;22.28;83.23
7802;BME280;3945;48.952;9.506;2023-07-24T10:21:00;97127.78;;;22.14;82.55
7802;BME280;3945;48.952;9.506;2023-07-24T10:23:27;97131.13;;;21.99;82.52
7802;BME280;3945;48.952;9.506;2023-07-24T10:25:53;97137.75;;;21.90;83.67
7802;BME280;3945;48.952;9.506;2023-07-24T10:28:29;97147.53;;;21.82;84.04
7802;BME280;3945;48.952;9.506;2023-07-24T10:30:56;97154.94;;;21.73;85.19
7802;BME280;3945;48.952;9.506;2023-07-24T10:33:22;97155.31;;;21.63;85.36
7802;BME280;3945;48.952;9.506;2023-07-24T10:35:52;97162.75;;;21.54;85.33
7802;BME280;3945;48.952;9.506;2023-07-24T10:38:19;97163.59;;;21.46;85.95
7802;BME280;3945;48.952;9.506;2023-07-24T10:40:46;97164.31;;;21.34;86.19
7802;BME280;3945;48.952;9.506;2023-07-24T10:43:17;97150.97;;;21.29;87.10
7802;BME280;3945;48.952;9.506;2023-07-24T10:45:46;97158.19;;;21.25;86.86
7802;BME280;3945;48.952;9.506;2023-07-24T10:48:13;97156.44;;;21.20;86.83
7802;BME280;3945;48.952;9.506;2023-07-24T10:50:40;97162.53;;;21.17;87.91
7802;BME280;3945;48.952;9.506;2023-07-24T10:53:08;97155.22;;;21.09;87.18
7802;BME280;3945;48.952;9.506;2023-07-24T10:55:34;97159.69;;;21.05;88.80
7802;BME280;3945;48.952;9.506;2023-07-24T10:58:01;97178.19;;;21.03;89.87
7802;BME280;3945;48.952;9.506;2023-07-24T11:00:27;97172.47;;;20.96;90.03
7802;BME280;3945;48.952;9.506;2023-07-24T11:02:53;97168.50;;;20.93;90.44
7802;BME280;3945;48.952;9.506;2023-07-24T11:05:20;97174.09;;;20.88;90.85
7802;BME280;3945;48.952;9.506;2023-07-24T11:07:47;97177.44;;;20.85;91.62
7802;BME280;3945;48.952;9.506;2023-07-24T11:10:18;97173.34;;;20.79;92.18
7802;BME280;3945;48.952;9.506;2023-07-24T11:12:44;97179.75;;;20.75;93.12
7802;BME280;3945;48.952;9.506;2023-07-24T11:15:11;97185.50;;;20.64;92.82
7802;BME280;3945;48.952;9.506;2023-07-24T11:17:38;97180.28;;;20.59;93.86
7802;BME280;3945;48.952;9.506;2023-07-24T11:20:06;97172.97;;;20.51;93.71
7802;BME280;3945;48.952;9.506;2023-07-24T11:22:33;97163.78;;;20.44;94.49
7802;BME280;3945;48.952;9.506;2023-07-24T11:24:59;97163.94;;;20.39;95.14
7802;BME280;3945;48.952;9.506;2023-07-24T11:27:28;97148.69;;;20.34;95.19
7802;BME280;3945;48.952;9.506;2023-07-24T11:29:54;97130.25;;;20.27;95.63
7802;BME280;3945;48.952;9.506;2023-07-24T11:32:21;97114.66;;;20.24;95.71
7802;BME280;3945;48.952;9.506;2023-07-24T11:34:48;97099.13;;;20.21;95.79
7802;BME280;3945;48.952;9.506;2023-07-24T11:37:14;97073.53;;;20.19;95.66
7802;BME280;3945;48.952;9.506;2023-07-24T11:39:41;97059.09;;;20.15;95.32
7802;BME280;3945;48.952;9.506;2023-07-24T11:42:07;97064.50;;;20.15;95.92
7802;BME280;3945;48.952;9.506;2023-07-24T11:44:35;97059.56;;;20.17;96.73
7802;BME280;3945;48.952;9.506;2023-07-24T11:47:02;97052.06;;;20.22;96.40
7802;BME280;3945;48.952;9.506;2023-07-24T11:49:29;97033.75;;;20.28;95.31
7802;BME280;3945;48.952;9.506;2023-07-24T11:51:59;97005.47;;;20.34;95.99
7802;BME280;3945;48.952;9.506;2023-07-24T11:54:25;96991.75;;;20.39;95.30
7802;BME280;3945;48.952;9.506;2023-07-24T11:56:52;97010.00;;;20.51;94.75
7802;BME280;3945;48.952;9.506;2023-07-24T11:59:18;97027.31;;;20.79;96.58
7802;BME280;3945;48.952;9.506;2023-07-24T12:01:46;97036.28;;;21.13;96.46
7802;BME280;3945;48.952;9.506;2023-07-24T12:04:13;97043.84;;;21.61;94.83
7802;BME280;3945;48.952;9.506;2023-07-24T12:06:40;97030.72;;;21.96;91.24
7802;BME280;3945;48.952;9.506;2023-07-24T12:09:06;97043.84;;;22.06;91.88
7802;BME280;3945;48.952;9.506;2023-07-24T12:11:33;97044.97;;;22.05;91.17
7802;BME280;3945;48.952;9.506;2023-07-24T12:14:00;97040.34;;;22.05;90.93
7802;BME280;3945;48.952;9.506;2023-07-24T12:16:27;97051.44;;;22.00;90.76
7802;BME280;3945;48.952;9.506;2023-07-24T12:18:55;97049.47;;;21.89;88.63
7802;BME280;3945;48.952;9.506;2023-07-24T12:21:22;97052.25;;;21.80;88.62
7802;BME280;3945;48.952;9.506;2023-07-24T12:23:48;97055.84;;;21.72;90.27
7802;BME280;3945;48.952;9.506;2023-07-24T12:26:14;97043.13;;;21.52;88.03
7802;BME280;3945;48.952;9.506;2023-07-24T12:28:55;97043.44;;;21.38;89.18
7802;BME280;3945;48.952;9.506;2023-07-24T12:31:22;97061.88;;;21.24;90.05
7802;BME280;3945;48.952;9.506;2023-07-24T12:33:49;97059.72;;;21.09;89.37
7802;BME280;3945;48.952;9.506;2023-07-24T12:36:17;97070.13;;;20.98;88.91
7802;BME280;3945;48.952;9.506;2023-07-24T12:38:43;97073.56;;;20.86;91.57
7802;BME280;3945;48.952;9.506;2023-07-24T12:41:09;97066.44;;;20.82;90.40
7802;BME280;3945;48.952;9.506;2023-07-24T12:43:36;97082.50;;;20.78;91.08
7802;BME280;3945;48.952;9.506;2023-07-24T12:46:02;97102.56;;;20.77;92.57
7802;BME280;3945;48.952;9.506;2023-07-24T12:48:29;97098.13;;;20.73;93.01
7802;BME280;3945;48.952;9.506;2023-07-24T12:50:56;97077.63;;;20.72;92.24
7802;BME280;3945;48.952;9.506;2023-07-24T12:53:26;97091.13;;;20.72;91.90
7802;BME280;3945;48.952;9.506;2023-07-24T12:55:52;97074.59;;;20.73;92.09
7802;BME280;3945;48.952;9.506;2023-07-24T12:58:19;97073.47;;;20.74;90.47
7802;BME280;3945;48.952;9.506;2023-07-24T13:00:45;97063.44;;;20.75;92.60
7802;BME280;3945;48.952;9.506;2023-07-24T13:03:11;97059.75;;;20.79;93.05
7802;BME280;3945;48.952;9.506;2023-07-24T13:05:38;97051.63;;;20.79;91.72
7802;BME280;3945;48.952;9.506;2023-07-24T13:08:04;97034.31;;;20.80;90.38
7802;BME280;3945;48.952;9.506;2023-07-24T13:10:32;97025.88;;;20.82;91.11
7802;BME280;3945;48.952;9.506;2023-07-24T13:12:58;97026.31;;;20.84;91.16
7802;BME280;3945;48.952;9.506;2023-07-24T13:15:26;97016.53;;;20.91;92.17